Time;durP1;ratioP1;P1;durP2;ratioP2;P2;SDS_P1;SDS_P2;PMS_P1;PMS_P2;Temp;Humidity;BMP_temperature;BMP_pressure;BME280_temperature;BME280_humidity;BME280_pressure;Samples;Min_cycle;Max_cycle;Signal;HPM_P1;HPM_P2
2023/04/09 00:01:55;;;;;;;44.60;40.00;;;;;;;8.69;61.84;101266.13;112651;1246;21979;-80
2023/04/09 00:04:25;;;;;;;49.70;44.60;;;;;;;8.69;61.80;101265.27;112361;1246;22334;-80
2023/04/09 00:07:08;;;;;;;48.10;43.00;;;;;;;8.70;61.86;101261.43;112463;1246;22117;-80
2023/04/09 00:09:40;;;;;;;;;;;;;;;8.70;62.04;101263.86;112469;1242;22617;-80
2023/04/09 00:12:16;;;;;;;57.80;45.70;;;;;;;8.62;62.13;101263.81;112720;1242;22953;-79
2023/04/09 00:14:54;;;;;;;48.80;43.70;;;;;;;8.63;62.34;101261.02;112705;1242;21968;-79
2023/04/09 00:17:34;;;;;;;49.90;44.50;;;;;;;8.65;62.32;101257.86;112237;1246;22033;-79
2023/04/09 00:20:08;;;;;;;48.50;43.30;;;;;;;8.68;62.45;101258.52;112541;1246;21954;-80
2023/04/09 00:22:43;;;;;;;50.90;45.30;;;;;;;8.72;62.43;101260.20;112973;1241;23679;-78
2023/04/09 00:25:15;;;;;;;48.00;42.60;;;;;;;8.75;62.48;101262.58;112513;1244;21947;-79
2023/04/09 00:27:51;;;;;;;51.30;45.70;;;;;;;8.77;62.39;101267.58;112429;1244;21955;-78
2023/04/09 00:30:31;;;;;;;51.00;45.40;;;;;;;8.75;62.30;101267.25;112091;1244;21972;-79
2023/04/09 00:33:13;;;;;;;51.90;46.10;;;;;;;8.72;62.26;101266.27;111931;1250;21980;-81
2023/04/09 00:35:44;;;;;;;50.30;45.00;;;;;;;8.67;62.34;101268.59;111925;1250;22496;-82
2023/04/09 00:38:14;;;;;;;50.10;44.80;;;;;;;8.65;62.36;101271.58;112170;1243;23027;-82
2023/04/09 00:40:56;;;;;;;51.50;45.90;;;;;;;8.63;62.37;101269.69;111978;1250;21976;-82
2023/04/09 00:43:29;;;;;;;47.60;42.30;;;;;;;8.62;62.45;101269.70;112483;1240;21970;-82
2023/04/09 00:46:00;;;;;;;52.40;47.00;;;;;;;8.62;62.45;101269.35;113010;1240;23585;-81
2023/04/09 00:48:31;;;;;;;54.90;48.50;;;;;;;8.64;62.53;101268.14;112535;1240;24018;-82
2023/04/09 00:51:09;;;;;;;53.60;48.10;;;;;;;8.65;62.58;101267.40;112767;1233;23098;-82
2023/04/09 00:53:42;;;;;;;55.60;49.60;;;;;;;8.66;62.61;101265.84;113828;1233;24343;-82
2023/04/09 00:56:15;;;;;;;57.60;49.60;;;;;;;8.69;62.78;101259.89;113454;1233;23698;-82
2023/04/09 00:58:50;;;;;;;57.20;48.60;;;;;;;8.70;62.76;101257.61;113639;1233;21916;-81
2023/04/09 01:01:22;;;;;;;55.00;49.20;;;;;;;8.71;62.68;101258.98;113392;1239;22351;-81
2023/04/09 01:04:06;;;;;;;57.60;51.50;;;;;;;8.72;62.70;101262.44;113484;1238;21936;-79
2023/04/09 01:06:58;;;;;;;63.30;54.80;;;;;;;8.73;62.65;101264.86;112635;1244;23689;-79
2023/04/09 01:09:38;;;;;;;59.20;51.30;;;;;;;8.73;62.53;101266.25;112364;1244;23011;-78
2023/04/09 01:12:56;;;;;;;59.50;53.10;;;;;;;8.73;62.52;101266.59;112333;1244;21942;-79
2023/04/09 01:15:35;;;;;;;61.50;54.80;;;;;;;8.71;62.62;101268.88;112392;1244;22780;-80
2023/04/09 01:18:22;;;;;;;60.80;54.10;;;;;;;8.69;62.63;101276.20;112494;1244;22190;-79
2023/04/09 01:21:22;;;;;;;62.00;54.00;;;;;;;8.69;62.53;101281.59;113001;1239;21939;-79
2023/04/09 01:24:22;;;;;;;58.00;51.80;;;;;;;8.67;62.56;101280.74;112405;1235;23671;-80
2023/04/09 01:27:07;;;;;;;65.50;53.70;;;;;;;8.66;62.66;101283.37;112581;1242;24284;-82
2023/04/09 01:29:56;;;;;;;60.90;54.30;;;;;;;8.63;62.54;101282.54;112567;1242;23655;-81
2023/04/09 01:32:26;;;;;;;64.20;55.50;;;;;;;8.61;62.64;101284.13;112572;1242;23581;-79
2023/04/09 01:35:00;;;;;;;63.40;53.70;;;;;;;8.62;62.75;101284.80;112804;1242;23595;-79
2023/04/09 01:37:29;;;;;;;63.90;57.00;;;;;;;8.63;62.77;101288.09;112821;1241;21948;-80
2023/04/09 01:39:59;;;;;;;60.80;54.40;;;;;;;8.64;62.92;101287.73;112596;1241;21957;-80
2023/04/09 01:42:29;;;;;;;64.50;57.70;;;;;;;8.65;63.01;101292.40;112796;1241;21947;-81
2023/04/09 01:45:01;;;;;;;65.30;58.80;;;;;;;8.65;63.11;101290.14;112648;1241;21943;-79
2023/04/09 01:47:33;;;;;;;64.90;58.30;;;;;;;8.66;63.32;101284.57;112846;1241;23719;-80
2023/04/09 01:50:03;;;;;;;;;;;;;;;8.66;63.38;101282.84;112519;1241;22024;-80
2023/04/09 01:52:33;;;;;;;59.40;53.40;;;;;;;8.55;63.64;101279.87;112408;1244;21954;-79
2023/04/09 01:55:02;;;;;;;59.10;52.70;;;;;;;8.54;63.62;101283.02;112416;1244;21946;-79
2023/04/09 01:57:35;;;;;;;58.50;52.40;;;;;;;8.54;63.83;101285.45;112310;1244;23730;-81
2023/04/09 02:00:06;;;;;;;;;;;;;;;8.54;63.99;101284.05;112018;1249;23694;-79
2023/04/09 02:03:34;;;;;;;58.40;52.40;;;;;;;8.48;64.15;101283.27;111893;1249;22962;-79
2023/04/09 02:06:26;;;;;;;60.00;53.60;;;;;;;8.45;64.27;101281.42;112469;1246;22420;-81
2023/04/09 02:09:00;;;;;;;59.30;53.00;;;;;;;8.42;64.26;101282.98;112646;1246;24354;-81
2023/04/09 02:11:36;;;;;;;59.20;53.20;;;;;;;8.43;64.40;101288.02;112526;1243;21972;-80
2023/04/09 02:14:11;;;;;;;57.80;50.30;;;;;;;8.43;64.53;101285.42;112570;1243;21961;-80
2023/04/09 02:16:42;;;;;;;57.70;51.90;;;;;;;8.43;64.52;101284.02;112722;1243;22481;-79
2023/04/09 02:19:17;;;;;;;61.70;55.20;;;;;;;8.44;64.61;101280.89;113184;1237;21945;-80
2023/04/09 02:21:52;;;;;;;59.90;52.90;;;;;;;8.45;64.71;101275.16;113764;1237;21936;-79
2023/04/09 02:24:25;;;;;;;58.70;52.60;;;;;;;8.43;64.68;101273.95;113609;1233;21965;-80
2023/04/09 02:27:05;;;;;;;59.30;53.00;;;;;;;8.40;64.81;101273.98;113397;1238;22055;-80
2023/04/09 02:29:47;;;;;;;59.80;53.60;;;;;;;8.39;64.91;101274.18;113271;1238;22544;-80
2023/04/09 02:32:30;;;;;;;58.90;52.50;;;;;;;8.39;65.10;101272.98;113189;1239;21957;-81
2023/04/09 02:35:16;;;;;;;60.80;54.60;;;;;;;8.37;65.06;101271.95;113093;1239;22725;-80
2023/04/09 02:37:56;;;;;;;61.10;53.90;;;;;;;8.34;65.25;101273.19;112776;1246;21960;-82
2023/04/09 02:40:28;;;;;;;62.00;55.40;;;;;;;8.34;65.22;101271.11;112481;1246;21962;-81
2023/04/09 02:43:06;;;;;;;59.20;53.10;;;;;;;8.34;65.31;101268.70;111829;1253;21978;-83
2023/04/09 02:46:03;;;;;;;59.20;52.80;;;;;;;8.33;65.65;101261.59;112236;1249;23684;-82
2023/04/09 02:48:55;;;;;;;58.50;52.50;;;;;;;8.33;65.76;101261.77;112133;1248;21964;-84
2023/04/09 02:51:33;;;;;;;62.20;55.80;;;;;;;8.34;65.76;101257.25;111765;1253;21964;-79
2023/04/09 02:54:19;;;;;;;63.50;57.10;;;;;;;8.34;65.97;101252.23;112110;1253;21983;-81
2023/04/09 02:56:55;;;;;;;60.90;54.90;;;;;;;8.35;66.15;101249.78;112020;1249;21952;-80
2023/04/09 02:59:31;;;;;;;59.10;53.00;;;;;;;8.35;66.16;101248.90;111995;1249;23103;-81
2023/04/09 03:02:08;;;;;;;58.50;52.90;;;;;;;8.35;66.18;101245.79;112518;1243;22022;-80
2023/04/09 03:04:46;;;;;;;59.20;53.40;;;;;;;8.35;66.39;101243.52;112584;1241;21955;-81
2023/04/09 03:07:27;;;;;;;55.30;50.00;;;;;;;8.35;66.49;101243.19;112406;1244;22105;-79
2023/04/09 03:10:03;;;;;;;61.60;55.60;;;;;;;8.36;66.57;101243.52;113102;1234;21939;-81
2023/04/09 03:12:33;;;;;;;64.10;57.60;;;;;;;8.37;66.60;101238.48;113641;1235;22886;-79
2023/04/09 03:15:04;;;;;;;63.80;57.60;;;;;;;8.38;66.63;101236.73;113761;1235;23710;-82
2023/04/09 03:17:38;;;;;;;65.10;58.90;;;;;;;8.39;66.80;101233.24;113350;1235;21942;-81
2023/04/09 03:20:15;;;;;;;57.20;52.00;;;;;;;8.40;66.94;101230.63;113761;1235;23756;-83
2023/04/09 03:22:49;;;;;;;53.30;48.00;;;;;;;8.40;66.93;101234.63;113587;1235;21940;-83
2023/04/09 03:25:36;;;;;;;55.40;49.90;;;;;;;8.40;67.18;101229.77;113648;1235;21906;-80
2023/04/09 03:28:17;;;;;;;57.50;51.80;;;;;;;8.39;67.24;101225.44;112752;1240;22693;-82
2023/04/09 03:31:00;;;;;;;59.80;53.90;;;;;;;8.37;67.08;101225.98;112602;1240;23075;-81
2023/04/09 03:33:39;;;;;;;58.70;52.90;;;;;;;8.36;67.32;101223.05;113060;1239;21953;-82
2023/04/09 03:36:14;;;;;;;46.30;41.70;;;;;;;8.36;67.33;101214.73;113071;1239;21979;-80
2023/04/09 03:39:29;;;;;;;45.40;41.10;;;;;;;8.34;67.55;101216.48;112852;1239;21995;-81
2023/04/09 03:42:12;;;;;;;46.00;41.50;;;;;;;8.32;67.62;101214.09;112769;1239;22449;-80
2023/04/09 03:44:57;;;;;;;43.40;39.40;;;;;;;8.33;67.57;101214.78;112856;1239;22428;-81
2023/04/09 03:47:39;;;;;;;43.00;39.00;;;;;;;8.32;67.54;101210.45;113415;1239;23824;-81
2023/04/09 03:50:19;;;;;;;45.60;41.40;;;;;;;8.31;67.64;101212.37;113393;1239;23497;-79
2023/04/09 03:52:56;;;;;;;41.60;37.70;;;;;;;8.31;67.79;101211.66;113881;1233;21956;-80
2023/04/09 03:55:31;;;;;;;42.70;38.80;;;;;;;8.32;67.75;101208.88;113689;1233;21904;-80
2023/04/09 03:58:17;;;;;;;44.60;40.10;;;;;;;8.33;67.72;101207.66;113873;1233;21937;-81
2023/04/09 04:00:56;;;;;;;48.20;43.70;;;;;;;8.34;67.68;101204.52;113560;1237;22394;-79
2023/04/09 04:03:50;;;;;;;48.30;43.60;;;;;;;8.33;67.80;101202.11;113566;1237;21944;-80
2023/04/09 04:06:30;;;;;;;51.00;46.20;;;;;;;8.34;67.91;101201.92;113585;1237;22920;-81
2023/04/09 04:09:28;;;;;;;55.00;49.40;;;;;;;8.33;67.85;101202.98;113223;1237;22058;-81
2023/04/09 04:12:11;;;;;;;54.80;49.60;;;;;;;8.32;67.93;101203.51;113470;1237;21967;-81
2023/04/09 04:15:19;;;;;;;58.40;52.90;;;;;;;8.29;68.01;101203.55;113357;1237;21922;-81
2023/04/09 04:17:56;;;;;;;56.70;51.40;;;;;;;8.28;68.05;101200.27;113323;1237;23003;-80
2023/04/09 04:20:47;;;;;;;53.70;48.90;;;;;;;8.28;68.14;101202.52;113533;1236;23668;-82
2023/04/09 04:23:28;;;;;;;53.20;48.10;;;;;;;8.28;68.10;101202.17;113604;1237;21941;-80
2023/04/09 04:26:09;;;;;;;48.70;44.00;;;;;;;8.26;68.13;101199.26;113633;1233;23696;-81
2023/04/09 04:28:58;;;;;;;48.90;44.00;;;;;;;8.25;68.16;101202.22;113589;1233;21976;-81
2023/04/09 04:31:58;;;;;;;49.40;44.50;;;;;;;8.24;68.20;101201.38;113872;1233;21952;-81
2023/04/09 04:34:32;;;;;;;47.30;42.90;;;;;;;8.26;68.27;101201.19;113763;1233;21957;-78
2023/04/09 04:37:17;;;;;;;47.40;42.80;;;;;;;8.27;68.29;101202.71;113891;1233;21964;-81
2023/04/09 04:40:01;;;;;;;45.90;41.60;;;;;;;8.29;68.33;101200.95;113785;1233;22049;-79
2023/04/09 04:42:35;;;;;;;43.10;39.10;;;;;;;8.30;68.34;101203.02;113812;1233;21959;-82
2023/04/09 04:45:13;;;;;;;40.20;36.50;;;;;;;8.28;68.42;101196.46;113806;1233;21947;-79
2023/04/09 04:47:53;;;;;;;38.00;34.30;;;;;;;8.29;68.40;101200.45;113855;1233;22720;-82
2023/04/09 04:50:29;;;;;;;39.00;35.30;;;;;;;8.26;68.36;101199.27;113578;1233;21962;-82
2023/04/09 04:53:16;;;;;;;39.80;36.00;;;;;;;8.23;68.41;101199.49;113816;1233;21924;-80
2023/04/09 04:55:52;;;;;;;37.30;33.50;;;;;;;8.20;68.49;101198.14;113906;1233;21989;-80
2023/04/09 04:58:29;;;;;;;37.90;34.40;;;;;;;8.20;68.52;101196.75;113879;1233;21959;-80
2023/04/09 05:01:03;;;;;;;36.60;33.20;;;;;;;8.21;68.50;101198.83;113745;1233;21954;-81
2023/04/09 05:03:37;;;;;;;41.30;37.40;;;;;;;8.22;68.53;101198.64;113625;1233;22943;-80
2023/04/09 05:06:33;;;;;;;40.10;36.00;;;;;;;8.18;68.47;101203.88;113894;1233;21925;-80
2023/04/09 05:09:07;;;;;;;39.70;36.00;;;;;;;8.15;68.53;101204.27;113323;1238;21931;-80
2023/04/09 05:11:45;;;;;;;41.00;37.10;;;;;;;8.14;68.67;101202.20;113538;1231;23011;-80
2023/04/09 05:14:22;;;;;;;39.20;35.40;;;;;;;8.13;68.63;101203.77;113501;1231;23031;-80
2023/04/09 05:20:05;;;;;;;38.60;35.00;;;;;;;8.14;68.84;101205.66;113322;1238;21943;-79
2023/04/09 05:22:45;;;;;;;38.30;34.90;;;;;;;8.14;68.84;101205.16;112837;1242;21915;-79
2023/04/09 05:25:15;;;;;;;38.40;34.60;;;;;;;8.16;68.84;101200.80;112725;1242;21960;-80
2023/04/09 05:27:45;;;;;;;39.70;35.90;;;;;;;8.18;68.91;101200.77;113079;1239;21999;-79
2023/04/09 05:30:18;;;;;;;37.90;34.30;;;;;;;8.18;68.81;101199.73;113099;1238;21959;-80
2023/04/09 05:32:53;;;;;;;40.10;36.10;;;;;;;8.19;68.97;101198.84;113157;1237;22537;-79
2023/04/09 05:35:30;;;;;;;38.20;34.70;;;;;;;8.22;69.08;101198.29;113596;1238;22073;-82
2023/04/09 05:38:12;;;;;;;39.20;35.50;;;;;;;8.25;68.97;101199.11;113404;1238;22812;-81
2023/04/09 05:40:53;;;;;;;38.60;34.80;;;;;;;8.28;68.97;101196.82;113415;1233;23601;-82
2023/04/09 05:43:24;;;;;;;39.40;35.50;;;;;;;8.31;68.89;101197.64;113746;1233;23011;-82
2023/04/09 05:45:54;;;;;;;37.90;34.10;;;;;;;8.34;68.84;101198.27;113443;1233;23727;-80
2023/04/09 05:48:33;;;;;;;38.50;34.90;;;;;;;8.34;68.71;101200.89;113540;1233;21921;-82
2023/04/09 05:51:05;;;;;;;43.80;38.30;;;;;;;8.36;68.80;101203.63;113836;1233;22934;-82
2023/04/09 05:53:43;;;;;;;53.10;40.30;;;;;;;8.40;68.65;101206.02;113903;1233;22974;-82
2023/04/09 05:56:15;;;;;;;42.90;38.40;;;;;;;8.42;68.53;101209.98;113113;1240;23626;-79
2023/04/09 05:58:56;;;;;;;43.30;38.80;;;;;;;8.45;68.50;101211.15;113091;1241;23028;-81
2023/04/09 06:01:33;;;;;;;44.80;40.40;;;;;;;8.47;68.49;101212.17;112931;1241;22186;-81
2023/04/09 06:04:12;;;;;;;42.90;38.50;;;;;;;8.47;68.45;101216.34;112346;1247;21941;-82
2023/04/09 06:06:58;;;;;;;41.80;38.10;;;;;;;8.45;68.46;101218.61;111891;1251;21951;-83
2023/04/09 06:09:35;;;;;;;43.10;39.10;;;;;;;8.43;68.25;101220.01;112062;1249;21972;-81
2023/04/09 06:12:09;;;;;;;42.50;38.40;;;;;;;8.36;68.23;101220.44;112069;1251;21935;-80
2023/04/09 06:14:54;;;;;;;43.60;39.30;;;;;;;8.32;68.24;101227.78;112250;1247;21955;-81
2023/04/09 06:17:34;;;;;;;47.40;43.00;;;;;;;8.30;68.24;101229.73;112540;1244;23585;-78
2023/04/09 06:20:08;;;;;;;51.70;47.10;;;;;;;8.27;68.35;101232.55;111835;1248;22072;-79
2023/04/09 06:22:38;;;;;;;53.90;48.90;;;;;;;8.27;68.43;101234.98;111837;1249;21982;-79
2023/04/09 06:25:07;;;;;;;57.90;52.50;;;;;;;8.27;68.45;101236.70;112067;1244;22844;-78
2023/04/09 06:27:37;;;;;;;56.60;51.20;;;;;;;8.28;68.46;101239.30;112441;1244;21947;-78
2023/04/09 06:30:22;;;;;;;58.30;52.70;;;;;;;8.30;68.47;101237.89;112409;1244;21971;-81
2023/04/09 06:33:06;;;;;;;57.60;51.70;;;;;;;8.29;68.55;101240.85;112624;1244;23031;-79
2023/04/09 06:35:40;;;;;;;58.10;51.10;;;;;;;8.27;68.47;101241.04;112203;1244;23588;-78
2023/04/09 06:38:12;;;;;;;57.10;51.40;;;;;;;8.28;68.56;101246.94;112708;1239;22169;-78
2023/04/09 06:40:48;;;;;;;55.50;50.00;;;;;;;8.28;68.53;101251.25;113357;1233;21935;-79
2023/04/09 06:43:22;;;;;;;58.30;52.30;;;;;;;8.27;68.53;101254.73;113566;1233;21942;-79
2023/04/09 06:45:54;;;;;;;56.30;50.60;;;;;;;8.27;68.65;101257.34;113396;1233;21943;-80
2023/04/09 06:48:24;;;;;;;59.00;52.90;;;;;;;8.31;68.88;101261.10;113659;1233;21932;-79
2023/04/09 06:50:56;;;;;;;57.60;51.70;;;;;;;8.33;68.68;101267.49;113588;1233;23077;-79
2023/04/09 06:53:29;;;;;;;58.70;52.70;;;;;;;8.35;68.73;101268.16;113575;1233;23719;-79
2023/04/09 06:55:59;;;;;;;62.80;56.00;;;;;;;8.37;68.90;101269.54;113443;1233;22721;-79
2023/04/09 06:58:30;;;;;;;62.10;55.60;;;;;;;8.39;68.96;101270.89;113612;1233;21963;-78
2023/04/09 07:01:04;;;;;;;68.30;61.30;;;;;;;8.39;68.90;101277.46;112948;1239;22416;-80
2023/04/09 07:03:46;;;;;;;70.30;63.00;;;;;;;8.39;68.89;101280.42;113043;1234;22086;-79
2023/04/09 07:06:28;;;;;;;73.30;65.50;;;;;;;8.38;68.96;101276.95;112847;1239;22992;-81
2023/04/09 07:08:58;;;;;;;71.10;63.80;;;;;;;8.40;68.98;101276.08;113013;1239;21961;-77
2023/04/09 07:11:27;;;;;;;69.50;62.90;;;;;;;8.42;69.01;101275.36;112924;1239;22367;-78
2023/04/09 07:14:01;;;;;;;67.50;60.60;;;;;;;8.44;69.12;101269.97;113058;1239;22694;-78
2023/04/09 07:16:30;;;;;;;63.20;57.00;;;;;;;8.46;69.15;101274.45;112981;1239;21926;-79
2023/04/09 07:19:00;;;;;;;59.60;53.70;;;;;;;8.47;69.10;101273.73;113160;1233;21969;-78
2023/04/09 07:21:29;;;;;;;58.10;52.70;;;;;;;8.48;69.08;101276.85;113666;1233;23054;-77
2023/04/09 07:23:58;;;;;;;59.20;53.60;;;;;;;8.46;69.09;101279.30;113442;1233;21974;-78
2023/04/09 07:26:29;;;;;;;59.10;53.40;;;;;;;8.45;69.11;101280.02;113347;1233;21944;-78
2023/04/09 07:28:58;;;;;;;56.40;50.90;;;;;;;8.44;69.24;101285.06;113349;1233;22477;-79
2023/04/09 07:31:27;;;;;;;58.00;52.60;;;;;;;8.46;69.41;101284.17;113513;1233;21943;-78
2023/04/09 07:33:56;;;;;;;58.10;52.40;;;;;;;8.47;69.42;101281.73;113572;1233;21989;-78
2023/04/09 07:36:28;;;;;;;57.80;52.10;;;;;;;8.45;69.45;101283.30;113597;1233;24330;-78
2023/04/09 07:38:58;;;;;;;61.90;55.90;;;;;;;8.45;69.62;101283.14;113644;1233;23464;-77
2023/04/09 07:41:28;;;;;;;58.70;53.10;;;;;;;8.48;69.75;101281.89;113650;1233;21936;-79
2023/04/09 07:43:58;;;;;;;83.00;75.00;;;;;;;8.47;69.61;101278.24;113561;1233;21959;-80
2023/04/09 07:46:27;;;;;;;72.10;65.20;;;;;;;8.47;69.69;101280.34;113690;1233;21938;-78
2023/04/09 07:48:56;;;;;;;65.70;59.40;;;;;;;8.47;69.87;101281.20;113602;1233;23575;-77
2023/04/09 07:51:26;;;;;;;58.10;52.50;;;;;;;8.47;69.87;101280.34;113520;1233;22706;-78
2023/04/09 07:53:55;;;;;;;58.10;52.80;;;;;;;8.47;69.94;101278.77;113744;1233;22007;-79
2023/04/09 07:56:25;;;;;;;61.30;55.30;;;;;;;8.48;69.93;101276.33;113533;1233;24352;-77
2023/04/09 07:58:57;;;;;;;61.10;55.40;;;;;;;8.53;69.99;101274.01;113590;1233;22590;-79
2023/04/09 08:01:32;;;;;;;71.50;57.40;;;;;;;8.54;70.14;101271.73;113890;1233;22047;-78
2023/04/09 08:04:06;;;;;;;59.90;54.40;;;;;;;8.56;70.09;101271.88;113835;1233;21974;-79
2023/04/09 08:06:52;;;;;;;61.20;55.10;;;;;;;8.60;70.10;101270.27;113362;1233;22000;-79
2023/04/09 08:09:22;;;;;;;60.10;54.50;;;;;;;8.62;70.22;101271.80;113929;1233;22581;-79
2023/04/09 08:12:01;;;;;;;60.00;54.30;;;;;;;8.66;70.25;101267.75;113768;1233;23586;-79
2023/04/09 08:14:37;;;;;;;64.50;58.10;;;;;;;8.68;70.30;101268.75;112989;1240;23735;-79
2023/04/09 08:17:09;;;;;;;60.50;54.80;;;;;;;8.72;70.35;101267.30;113096;1239;21950;-79
2023/04/09 08:19:43;;;;;;;;;;;;;;;8.71;70.26;101263.32;112625;1242;21936;-80
2023/04/09 08:22:22;;;;;;;62.00;56.30;;;;;;;8.61;70.44;101260.00;112276;1246;21964;-80
2023/04/09 08:25:07;;;;;;;63.30;57.20;;;;;;;8.65;70.54;101259.09;111918;1246;21976;-80
2023/04/09 08:27:46;;;;;;;64.30;58.20;;;;;;;8.69;70.79;101262.67;112498;1246;22017;-80
2023/04/09 08:30:17;;;;;;;64.90;58.60;;;;;;;8.74;70.57;101263.63;112690;1246;21971;-81
2023/04/09 08:33:03;;;;;;;64.80;58.70;;;;;;;8.81;70.61;101267.33;112942;1244;21962;-80
2023/04/09 08:35:52;;;;;;;66.00;59.80;;;;;;;8.87;70.80;101265.50;113174;1244;22536;-80
2023/04/09 08:38:34;;;;;;;65.10;58.90;;;;;;;8.96;70.79;101264.32;112788;1246;21949;-81
2023/04/09 08:41:28;;;;;;;63.60;57.30;;;;;;;9.02;70.70;101267.16;112879;1241;21939;-80
2023/04/09 08:44:09;;;;;;;60.30;54.70;;;;;;;9.07;70.72;101268.11;113130;1241;21986;-78
2023/04/09 08:47:48;;;;;;;59.80;54.10;;;;;;;9.08;70.59;101273.48;113096;1241;22027;-80
2023/04/09 08:50:24;;;;;;;57.40;51.90;;;;;;;9.08;70.45;101275.06;112775;1241;22693;-79
2023/04/09 08:53:10;;;;;;;57.60;51.90;;;;;;;9.06;70.34;101275.09;112946;1241;23491;-80
2023/04/09 08:55:49;;;;;;;58.90;53.10;;;;;;;9.09;70.23;101281.98;112602;1233;22008;-79
2023/04/09 08:58:33;;;;;;;57.80;52.40;;;;;;;9.09;70.29;101285.27;113733;1233;23224;-80
2023/04/09 09:01:33;;;;;;;60.30;54.30;;;;;;;9.11;70.21;101285.93;113333;1238;22008;-80
2023/04/09 09:04:18;;;;;;;64.70;58.50;;;;;;;9.11;70.27;101286.98;113675;1237;21926;-80
2023/04/09 09:06:52;;;;;;;62.50;56.50;;;;;;;9.13;70.22;101285.58;113264;1237;23565;-79
2023/04/09 09:09:29;;;;;;;60.80;55.00;;;;;;;9.15;70.20;101281.89;112963;1240;21979;-83
2023/04/09 09:12:02;;;;;;;74.30;67.20;;;;;;;9.21;70.37;101275.37;112597;1243;22027;-78
2023/04/09 09:14:34;;;;;;;73.20;66.20;;;;;;;9.29;70.48;101269.65;112469;1243;21943;-81
2023/04/09 09:17:11;;;;;;;56.60;51.20;;;;;;;9.41;70.78;101266.13;112805;1243;21957;-81
2023/04/09 09:19:52;;;;;;;56.50;50.50;;;;;;;9.60;71.21;101267.88;113037;1239;21936;-79
2023/04/09 09:23:01;;;;;;;54.20;49.00;;;;;;;9.74;71.04;101278.56;113314;1239;21948;-81
2023/04/09 09:25:42;;;;;;;56.10;50.70;;;;;;;9.84;70.72;101282.02;113230;1239;21963;-79
2023/04/09 09:28:17;;;;;;;53.50;48.40;;;;;;;9.94;70.40;101282.15;113437;1233;21956;-82
2023/04/09 09:30:56;;;;;;;54.30;49.30;;;;;;;10.01;69.86;101286.17;113899;1233;22171;-80
2023/04/09 09:33:39;;;;;;;59.40;53.20;;;;;;;10.04;69.61;101287.52;113936;1233;21939;-79
2023/04/09 09:36:17;;;;;;;56.20;50.50;;;;;;;10.08;69.61;101287.60;114072;1233;21940;-80
2023/04/09 09:39:08;;;;;;;56.70;51.20;;;;;;;10.14;69.31;101285.22;113601;1240;23031;-81
2023/04/09 09:41:47;;;;;;;59.30;53.80;;;;;;;10.11;68.95;101281.11;113144;1240;22713;-81
2023/04/09 09:44:49;;;;;;;57.40;51.70;;;;;;;10.09;68.89;101280.80;112845;1245;21986;-82
2023/04/09 09:47:26;;;;;;;59.00;53.10;;;;;;;10.19;69.34;101278.36;112453;1245;22846;-80
2023/04/09 09:50:05;;;;;;;55.70;50.50;;;;;;;10.38;69.57;101280.73;112607;1245;21996;-82
2023/04/09 09:52:44;;;;;;;69.50;62.50;;;;;;;10.54;69.31;101280.20;112023;1249;22721;-82
2023/04/09 09:55:29;;;;;;;60.50;54.80;;;;;;;10.78;69.65;101277.56;111985;1249;21977;-80
2023/04/09 09:58:18;;;;;;;61.10;54.90;;;;;;;11.04;69.51;101278.49;112316;1244;22021;-81
2023/04/09 10:00:58;;;;;;;58.30;52.70;;;;;;;11.24;69.04;101274.34;112728;1235;21967;-81
2023/04/09 10:03:37;;;;;;;55.60;50.10;;;;;;;11.38;68.34;101272.76;111931;1250;21990;-78
2023/04/09 10:06:17;;;;;;;53.30;47.90;;;;;;;11.48;67.64;101275.63;112066;1249;24366;-80
2023/04/09 10:09:02;;;;;;;52.20;47.20;;;;;;;11.49;66.94;101276.28;112088;1245;21972;-80
2023/04/09 10:11:48;;;;;;;52.10;47.10;;;;;;;11.50;66.78;101276.77;112675;1240;22872;-81
2023/04/09 10:14:26;;;;;;;54.00;48.90;;;;;;;11.52;66.32;101280.70;113082;1240;23734;-79
2023/04/09 10:17:11;;;;;;;50.10;45.30;;;;;;;11.51;65.97;101278.14;113077;1240;21970;-81
2023/04/09 10:20:18;;;;;;;51.20;46.50;;;;;;;11.48;65.80;101277.02;112926;1240;22041;-81
2023/04/09 10:22:55;;;;;;;50.40;45.70;;;;;;;11.41;65.41;101274.59;113224;1240;21950;-79
2023/04/09 10:25:31;;;;;;;49.20;44.80;;;;;;;11.35;65.39;101272.80;113004;1240;21950;-81
2023/04/09 10:28:17;;;;;;;50.10;45.40;;;;;;;11.35;65.52;101275.95;112877;1238;23008;-80
2023/04/09 10:30:57;;;;;;;49.60;45.10;;;;;;;11.36;65.74;101274.90;112472;1243;23694;-80
2023/04/09 10:33:44;;;;;;;51.80;46.90;;;;;;;11.39;65.67;101277.44;112341;1247;21959;-80
2023/04/09 10:36:21;;;;;;;51.60;46.50;;;;;;;11.39;65.54;101274.46;112160;1248;21974;-80
2023/04/09 10:38:57;;;;;;;49.40;44.70;;;;;;;11.37;65.64;101275.20;112320;1248;21977;-80
2023/04/09 10:41:57;;;;;;;51.10;46.30;;;;;;;11.36;65.58;101276.63;112136;1248;22062;-80
2023/04/09 10:45:00;;;;;;;51.50;46.70;;;;;;;11.31;65.58;101275.71;111675;1252;22713;-81
2023/04/09 10:47:44;;;;;;;52.80;47.80;;;;;;;11.25;65.74;101274.98;112258;1247;21947;-82
2023/04/09 10:50:41;;;;;;;52.30;47.10;;;;;;;11.24;65.65;101278.15;112504;1245;21948;-81
2023/04/09 10:53:28;;;;;;;50.70;45.90;;;;;;;11.19;65.65;101278.98;112624;1244;21954;-80
2023/04/09 10:56:25;;;;;;;51.70;47.00;;;;;;;11.14;65.68;101274.92;112686;1244;23578;-80
2023/04/09 10:59:27;;;;;;;50.10;45.40;;;;;;;11.13;65.84;101277.40;112918;1240;21951;-80
2023/04/09 11:02:34;;;;;;;48.80;44.10;;;;;;;11.16;66.24;101274.88;112955;1234;22435;-80
2023/04/09 11:05:32;;;;;;;47.60;43.00;;;;;;;11.19;66.24;101269.05;112719;1243;21962;-79
2023/04/09 11:08:12;;;;;;;47.80;42.90;;;;;;;11.24;66.38;101271.19;112638;1243;21965;-79
2023/04/09 11:10:55;;;;;;;46.70;42.10;;;;;;;11.29;66.29;101275.58;112751;1243;22173;-80
2023/04/09 11:13:34;;;;;;;47.20;42.60;;;;;;;11.33;66.32;101275.65;112429;1243;22269;-80
2023/04/09 11:16:05;;;;;;;50.50;45.70;;;;;;;11.39;66.26;101275.16;112393;1243;232568;-81
2023/04/09 11:18:38;;;;;;;48.30;43.70;;;;;;;11.44;66.18;101273.10;112675;1243;23031;-79
2023/04/09 11:21:20;;;;;;;47.20;42.90;;;;;;;11.46;66.12;101273.91;112564;1243;22010;-81
2023/04/09 11:23:58;;;;;;;47.20;42.70;;;;;;;11.47;65.97;101274.43;112484;1241;22662;-80
2023/04/09 11:26:43;;;;;;;46.60;41.90;;;;;;;11.45;65.87;101275.70;112928;1241;23695;-81
2023/04/09 11:29:24;;;;;;;44.70;40.60;;;;;;;11.41;65.90;101275.81;113064;1241;22346;-80
2023/04/09 11:32:06;;;;;;;46.30;41.90;;;;;;;11.39;65.98;101274.30;112966;1240;21951;-80
2023/04/09 11:34:55;;;;;;;50.00;45.20;;;;;;;11.38;66.12;101273.09;113049;1240;23720;-80
2023/04/09 11:37:39;;;;;;;;;;;;;;;;;;;;;
2023/04/09 11:40:28;;;;;;;48.50;43.80;;;;;;;11.36;66.21;101271.08;112552;1245;21955;-80
2023/04/09 11:43:42;;;;;;;47.70;43.20;;;;;;;11.37;66.21;101272.26;112878;1239;23713;-80
2023/04/09 11:46:20;;;;;;;49.30;44.70;;;;;;;11.36;66.19;101273.51;113350;1239;23607;-80
2023/04/09 11:49:12;;;;;;;;;;;;;;;;;;;;;
2023/04/09 11:51:56;;;;;;;49.40;44.40;;;;;;;11.36;66.25;101279.24;113287;1238;23014;-81
2023/04/09 11:54:34;;;;;;;47.70;43.10;;;;;;;11.43;66.38;101279.73;112857;1243;22001;-80
2023/04/09 11:57:09;;;;;;;48.60;43.90;;;;;;;11.48;66.32;101278.42;112454;1243;23729;-80
2023/04/09 11:59:51;;;;;;;50.60;45.70;;;;;;;11.47;66.34;101277.73;113088;1237;21984;-80
2023/04/09 12:02:24;;;;;;;46.80;42.30;;;;;;;11.48;66.29;101278.05;113314;1237;22694;-81
2023/04/09 12:05:13;;;;;;;48.00;43.50;;;;;;;11.47;66.14;101278.27;113352;1237;24098;-80
2023/04/09 12:07:50;;;;;;;50.00;45.20;;;;;;;11.41;66.11;101279.29;113174;1237;21944;-80
2023/04/09 12:10:43;;;;;;;49.60;44.90;;;;;;;11.33;66.11;101277.42;113447;1237;21943;-80
2023/04/09 12:13:32;;;;;;;49.20;44.60;;;;;;;11.27;66.39;101278.97;113747;1233;22005;-80